sensor_id;sensor_type;location;lat;lon;timestamp;P1;durP1;ratioP1;P2;durP2;ratioP2
75839;SDS011;64481;55.090;37.460;2022-10-23T00:07:31;4.25;;;1.75;;
75839;SDS011;64481;55.090;37.460;2022-10-23T00:12:33;4.25;;;1.40;;
75839;SDS011;64481;55.090;37.460;2022-10-23T00:17:34;6.55;;;2.03;;
75839;SDS011;64481;55.090;37.460;2022-10-23T00:22:35;5.03;;;1.83;;
75839;SDS011;64481;55.090;37.460;2022-10-23T00:27:36;5.03;;;1.77;;
75839;SDS011;64481;55.090;37.460;2022-10-23T00:32:37;4.82;;;1.80;;
75839;SDS011;64481;55.090;37.460;2022-10-23T00:37:38;4.30;;;1.70;;
75839;SDS011;64481;55.090;37.460;2022-10-23T00:42:39;4.28;;;1.75;;
75839;SDS011;64481;55.090;37.460;2022-10-23T00:47:40;3.90;;;1.70;;
75839;SDS011;64481;55.090;37.460;2022-10-23T00:52:44;2.92;;;1.50;;
75839;SDS011;64481;55.090;37.460;2022-10-23T00:57:47;2.85;;;1.40;;
75839;SDS011;64481;55.090;37.460;2022-10-23T01:02:50;3.38;;;1.38;;
75839;SDS011;64481;55.090;37.460;2022-10-23T01:07:53;3.45;;;1.70;;
75839;SDS011;64481;55.090;37.460;2022-10-23T01:13:16;3.58;;;1.85;;
75839;SDS011;64481;55.090;37.460;2022-10-23T01:18:43;4.10;;;1.90;;
75839;SDS011;64481;55.090;37.460;2022-10-23T01:29:00;3.45;;;1.55;;
75839;SDS011;64481;55.090;37.460;2022-10-23T01:39:10;2.92;;;1.50;;
75839;SDS011;64481;55.090;37.460;2022-10-23T01:49:18;2.50;;;1.25;;
75839;SDS011;64481;55.090;37.460;2022-10-23T01:54:22;3.42;;;1.45;;
75839;SDS011;64481;55.090;37.460;2022-10-23T01:59:28;3.88;;;1.80;;
75839;SDS011;64481;55.090;37.460;2022-10-23T02:04:35;3.95;;;1.48;;
75839;SDS011;64481;55.090;37.460;2022-10-23T02:09:39;3.92;;;1.90;;
75839;SDS011;64481;55.090;37.460;2022-10-23T02:20:11;2.50;;;1.20;;
75839;SDS011;64481;55.090;37.460;2022-10-23T02:25:15;5.72;;;1.70;;
75839;SDS011;64481;55.090;37.460;2022-10-23T02:30:19;2.85;;;1.33;;
75839;SDS011;64481;55.090;37.460;2022-10-23T02:35:21;4.07;;;1.50;;
75839;SDS011;64481;55.090;37.460;2022-10-23T02:40:25;3.63;;;1.10;;
75839;SDS011;64481;55.090;37.460;2022-10-23T02:50:50;2.90;;;1.35;;
75839;SDS011;64481;55.090;37.460;2022-10-23T02:56:16;3.00;;;1.55;;
75839;SDS011;64481;55.090;37.460;2022-10-23T03:01:31;3.22;;;1.30;;
75839;SDS011;64481;55.090;37.460;2022-10-23T03:06:36;4.00;;;1.70;;
75839;SDS011;64481;55.090;37.460;2022-10-23T03:11:37;2.63;;;1.67;;
75839;SDS011;64481;55.090;37.460;2022-10-23T03:16:38;2.60;;;1.52;;
75839;SDS011;64481;55.090;37.460;2022-10-23T03:21:39;3.05;;;1.23;;
75839;SDS011;64481;55.090;37.460;2022-10-23T03:26:40;3.60;;;1.48;;
75839;SDS011;64481;55.090;37.460;2022-10-23T03:31:41;3.53;;;1.77;;
75839;SDS011;64481;55.090;37.460;2022-10-23T03:36:42;3.33;;;2.25;;
75839;SDS011;64481;55.090;37.460;2022-10-23T03:41:43;2.97;;;1.52;;
75839;SDS011;64481;55.090;37.460;2022-10-23T03:46:44;2.72;;;1.50;;
75839;SDS011;64481;55.090;37.460;2022-10-23T03:51:45;2.25;;;1.23;;
75839;SDS011;64481;55.090;37.460;2022-10-23T09:07:36;10.40;;;2.80;;
75839;SDS011;64481;55.090;37.460;2022-10-23T09:12:40;6.75;;;2.38;;
75839;SDS011;64481;55.090;37.460;2022-10-23T09:17:42;4.85;;;2.30;;
75839;SDS011;64481;55.090;37.460;2022-10-23T09:22:43;6.63;;;2.20;;
75839;SDS011;64481;55.090;37.460;2022-10-23T09:27:46;5.80;;;2.40;;
75839;SDS011;64481;55.090;37.460;2022-10-23T09:32:48;8.93;;;2.38;;
75839;SDS011;64481;55.090;37.460;2022-10-23T09:37:49;5.93;;;2.50;;
75839;SDS011;64481;55.090;37.460;2022-10-23T09:43:00;7.03;;;2.42;;
75839;SDS011;64481;55.090;37.460;2022-10-23T09:48:09;7.50;;;2.83;;
75839;SDS011;64481;55.090;37.460;2022-10-23T15:09:21;4.75;;;2.78;;
75839;SDS011;64481;55.090;37.460;2022-10-23T15:14:22;5.30;;;3.15;;
75839;SDS011;64481;55.090;37.460;2022-10-23T15:19:23;5.85;;;2.90;;
75839;SDS011;64481;55.090;37.460;2022-10-23T15:24:24;5.38;;;2.53;;
75839;SDS011;64481;55.090;37.460;2022-10-23T15:29:26;6.18;;;3.08;;
75839;SDS011;64481;55.090;37.460;2022-10-23T15:34:27;5.15;;;2.67;;
75839;SDS011;64481;55.090;37.460;2022-10-23T15:39:30;4.80;;;2.65;;
75839;SDS011;64481;55.090;37.460;2022-10-23T15:44:33;6.38;;;2.40;;
75839;SDS011;64481;55.090;37.460;2022-10-23T15:49:34;4.57;;;2.38;;
75839;SDS011;64481;55.090;37.460;2022-10-23T15:54:36;4.75;;;2.53;;
75839;SDS011;64481;55.090;37.460;2022-10-23T15:59:37;5.28;;;2.97;;
75839;SDS011;64481;55.090;37.460;2022-10-23T16:04:38;6.75;;;3.15;;
75839;SDS011;64481;55.090;37.460;2022-10-23T16:09:39;4.55;;;2.40;;
75839;SDS011;64481;55.090;37.460;2022-10-23T16:14:40;4.20;;;2.38;;
75839;SDS011;64481;55.090;37.460;2022-10-23T16:19:41;6.38;;;2.70;;
75839;SDS011;64481;55.090;37.460;2022-10-23T16:24:42;4.60;;;2.20;;
75839;SDS011;64481;55.090;37.460;2022-10-23T16:29:43;4.93;;;2.40;;
75839;SDS011;64481;55.090;37.460;2022-10-23T16:34:45;4.18;;;2.38;;
75839;SDS011;64481;55.090;37.460;2022-10-23T16:39:46;4.07;;;2.50;;
75839;SDS011;64481;55.090;37.460;2022-10-23T16:44:47;4.97;;;2.70;;
75839;SDS011;64481;55.090;37.460;2022-10-23T16:49:48;4.00;;;2.28;;
75839;SDS011;64481;55.090;37.460;2022-10-23T16:54:49;3.92;;;2.22;;
75839;SDS011;64481;55.090;37.460;2022-10-23T16:59:50;5.03;;;2.20;;
75839;SDS011;64481;55.090;37.460;2022-10-23T17:04:51;8.88;;;2.58;;
75839;SDS011;64481;55.090;37.460;2022-10-23T17:09:52;6.25;;;2.40;;
75839;SDS011;64481;55.090;37.460;2022-10-23T17:14:53;4.22;;;2.38;;
75839;SDS011;64481;55.090;37.460;2022-10-23T17:19:54;3.70;;;2.33;;
75839;SDS011;64481;55.090;37.460;2022-10-23T17:24:55;3.88;;;2.33;;
75839;SDS011;64481;55.090;37.460;2022-10-23T17:29:56;7.95;;;2.42;;
75839;SDS011;64481;55.090;37.460;2022-10-23T17:34:57;4.35;;;2.38;;
75839;SDS011;64481;55.090;37.460;2022-10-23T17:39:58;5.30;;;2.35;;
75839;SDS011;64481;55.090;37.460;2022-10-23T17:45:02;6.10;;;2.42;;
75839;SDS011;64481;55.090;37.460;2022-10-23T17:50:03;4.47;;;2.50;;
75839;SDS011;64481;55.090;37.460;2022-10-23T17:55:06;4.82;;;2.30;;
75839;SDS011;64481;55.090;37.460;2022-10-23T18:00:08;4.28;;;1.80;;
75839;SDS011;64481;55.090;37.460;2022-10-23T18:05:09;4.93;;;2.38;;
75839;SDS011;64481;55.090;37.460;2022-10-23T18:10:10;5.45;;;2.30;;
75839;SDS011;64481;55.090;37.460;2022-10-23T18:15:11;4.53;;;1.90;;
75839;SDS011;64481;55.090;37.460;2022-10-23T18:20:12;6.45;;;2.47;;
75839;SDS011;64481;55.090;37.460;2022-10-23T18:25:15;4.75;;;2.40;;
75839;SDS011;64481;55.090;37.460;2022-10-23T18:30:16;7.57;;;2.47;;
75839;SDS011;64481;55.090;37.460;2022-10-23T18:35:17;9.07;;;2.33;;
75839;SDS011;64481;55.090;37.460;2022-10-23T18:40:18;6.15;;;2.10;;
75839;SDS011;64481;55.090;37.460;2022-10-23T18:45:19;6.38;;;2.65;;
75839;SDS011;64481;55.090;37.460;2022-10-23T18:50:21;4.93;;;2.10;;
75839;SDS011;64481;55.090;37.460;2022-10-23T18:55:22;6.45;;;2.35;;
75839;SDS011;64481;55.090;37.460;2022-10-23T19:00:23;6.82;;;2.03;;
75839;SDS011;64481;55.090;37.460;2022-10-23T19:05:24;5.13;;;2.10;;
75839;SDS011;64481;55.090;37.460;2022-10-23T19:10:25;5.20;;;1.88;;
75839;SDS011;64481;55.090;37.460;2022-10-23T19:15:32;7.65;;;2.17;;
75839;SDS011;64481;55.090;37.460;2022-10-23T19:20:34;6.20;;;1.95;;
75839;SDS011;64481;55.090;37.460;2022-10-23T19:25:35;3.17;;;1.70;;
75839;SDS011;64481;55.090;37.460;2022-10-23T19:30:36;3.53;;;2.03;;
75839;SDS011;64481;55.090;37.460;2022-10-23T19:35:37;4.38;;;1.85;;
75839;SDS011;64481;55.090;37.460;2022-10-23T19:40:38;2.92;;;1.45;;
75839;SDS011;64481;55.090;37.460;2022-10-23T19:45:39;3.55;;;1.52;;
75839;SDS011;64481;55.090;37.460;2022-10-23T19:50:41;5.15;;;1.80;;
75839;SDS011;64481;55.090;37.460;2022-10-23T19:55:42;4.88;;;1.75;;
75839;SDS011;64481;55.090;37.460;2022-10-23T20:48:38;2.78;;;1.40;;
75839;SDS011;64481;55.090;37.460;2022-10-23T20:53:41;3.42;;;1.40;;
75839;SDS011;64481;55.090;37.460;2022-10-23T20:58:42;3.17;;;1.70;;
75839;SDS011;64481;55.090;37.460;2022-10-23T21:03:43;5.45;;;1.90;;
75839;SDS011;64481;55.090;37.460;2022-10-23T21:08:52;4.72;;;2.00;;
75839;SDS011;64481;55.090;37.460;2022-10-23T21:13:54;3.70;;;1.70;;
75839;SDS011;64481;55.090;37.460;2022-10-23T21:18:56;3.53;;;1.70;;
75839;SDS011;64481;55.090;37.460;2022-10-23T21:23:57;3.90;;;1.90;;
75839;SDS011;64481;55.090;37.460;2022-10-23T21:28:59;2.97;;;1.60;;
75839;SDS011;64481;55.090;37.460;2022-10-23T21:34:00;3.42;;;1.80;;
75839;SDS011;64481;55.090;37.460;2022-10-23T21:39:01;3.53;;;1.80;;
75839;SDS011;64481;55.090;37.460;2022-10-23T21:44:03;3.78;;;1.85;;
75839;SDS011;64481;55.090;37.460;2022-10-23T21:49:05;3.00;;;1.88;;
75839;SDS011;64481;55.090;37.460;2022-10-23T21:54:09;3.70;;;1.80;;
75839;SDS011;64481;55.090;37.460;2022-10-23T21:59:12;5.60;;;2.13;;
75839;SDS011;64481;55.090;37.460;2022-10-23T22:04:15;3.35;;;1.95;;
75839;SDS011;64481;55.090;37.460;2022-10-23T22:09:18;4.60;;;1.85;;
75839;SDS011;64481;55.090;37.460;2022-10-23T22:14:20;4.93;;;2.15;;
75839;SDS011;64481;55.090;37.460;2022-10-23T22:19:22;4.85;;;1.92;;
75839;SDS011;64481;55.090;37.460;2022-10-23T22:24:23;3.60;;;1.70;;
75839;SDS011;64481;55.090;37.460;2022-10-23T22:29:26;4.15;;;2.20;;
75839;SDS011;64481;55.090;37.460;2022-10-23T22:34:29;5.28;;;2.20;;
75839;SDS011;64481;55.090;37.460;2022-10-23T22:39:30;4.15;;;1.67;;
75839;SDS011;64481;55.090;37.460;2022-10-23T22:44:31;5.10;;;2.13;;
75839;SDS011;64481;55.090;37.460;2022-10-23T22:49:32;4.45;;;1.83;;
75839;SDS011;64481;55.090;37.460;2022-10-23T22:54:33;4.32;;;2.25;;
75839;SDS011;64481;55.090;37.460;2022-10-23T22:59:34;4.30;;;1.90;;
75839;SDS011;64481;55.090;37.460;2022-10-23T23:04:35;4.93;;;2.03;;
75839;SDS011;64481;55.090;37.460;2022-10-23T23:09:40;3.50;;;1.80;;
75839;SDS011;64481;55.090;37.460;2022-10-23T23:14:42;3.92;;;1.67;;
75839;SDS011;64481;55.090;37.460;2022-10-23T23:19:43;3.20;;;1.33;;
75839;SDS011;64481;55.090;37.460;2022-10-23T23:24:44;3.83;;;1.65;;
75839;SDS011;64481;55.090;37.460;2022-10-23T23:29:45;4.20;;;1.73;;
75839;SDS011;64481;55.090;37.460;2022-10-23T23:34:46;3.72;;;1.90;;
75839;SDS011;64481;55.090;37.460;2022-10-23T23:39:47;3.95;;;1.58;;
75839;SDS011;64481;55.090;37.460;2022-10-23T23:44:48;2.80;;;1.50;;
75839;SDS011;64481;55.090;37.460;2022-10-23T23:49:49;3.53;;;1.48;;
75839;SDS011;64481;55.090;37.460;2022-10-23T23:54:50;3.20;;;1.52;;
75839;SDS011;64481;55.090;37.460;2022-10-23T23:59:52;3.45;;;1.70;;
